sensor_id;sensor_type;location;lat;lon;timestamp;P1;durP1;ratioP1;P2;durP2;ratioP2
30247;SDS011;17063;50.892;4.702;2024-02-21T00:00:57;23.23;;;8.10;;
30247;SDS011;17063;50.892;4.702;2024-02-21T00:03:24;23.07;;;8.57;;
30247;SDS011;17063;50.892;4.702;2024-02-21T00:05:50;21.30;;;8.70;;
30247;SDS011;17063;50.892;4.702;2024-02-21T00:08:17;25.90;;;8.60;;
30247;SDS011;17063;50.892;4.702;2024-02-21T00:10:44;25.10;;;8.70;;
30247;SDS011;17063;50.892;4.702;2024-02-21T00:13:12;26.73;;;7.90;;
30247;SDS011;17063;50.892;4.702;2024-02-21T00:15:38;23.07;;;8.63;;
30247;SDS011;17063;50.892;4.702;2024-02-21T00:18:05;24.13;;;8.43;;
30247;SDS011;17063;50.892;4.702;2024-02-21T00:20:32;25.10;;;8.93;;
30247;SDS011;17063;50.892;4.702;2024-02-21T00:22:59;24.00;;;8.00;;
30247;SDS011;17063;50.892;4.702;2024-02-21T00:25:26;24.30;;;9.17;;
30247;SDS011;17063;50.892;4.702;2024-02-21T00:27:53;26.77;;;8.60;;
30247;SDS011;17063;50.892;4.702;2024-02-21T00:30:20;27.50;;;9.00;;
30247;SDS011;17063;50.892;4.702;2024-02-21T00:32:47;21.57;;;8.33;;
30247;SDS011;17063;50.892;4.702;2024-02-21T00:35:14;19.47;;;8.20;;
30247;SDS011;17063;50.892;4.702;2024-02-21T00:37:41;23.00;;;8.40;;
30247;SDS011;17063;50.892;4.702;2024-02-21T00:40:08;20.70;;;8.63;;
30247;SDS011;17063;50.892;4.702;2024-02-21T00:42:35;28.90;;;8.50;;
30247;SDS011;17063;50.892;4.702;2024-02-21T00:45:02;20.37;;;8.80;;
30247;SDS011;17063;50.892;4.702;2024-02-21T00:47:29;23.10;;;7.63;;
30247;SDS011;17063;50.892;4.702;2024-02-21T00:49:56;21.17;;;9.00;;
30247;SDS011;17063;50.892;4.702;2024-02-21T00:52:23;23.27;;;8.77;;
30247;SDS011;17063;50.892;4.702;2024-02-21T00:54:50;20.07;;;8.03;;
30247;SDS011;17063;50.892;4.702;2024-02-21T00:57:20;25.73;;;8.60;;
30247;SDS011;17063;50.892;4.702;2024-02-21T00:59:47;30.03;;;9.73;;
30247;SDS011;17063;50.892;4.702;2024-02-21T01:02:14;25.60;;;8.53;;
30247;SDS011;17063;50.892;4.702;2024-02-21T01:04:41;25.97;;;8.23;;
30247;SDS011;17063;50.892;4.702;2024-02-21T01:07:08;24.13;;;8.23;;
30247;SDS011;17063;50.892;4.702;2024-02-21T01:09:34;28.03;;;9.63;;
30247;SDS011;17063;50.892;4.702;2024-02-21T01:12:01;22.37;;;7.50;;
30247;SDS011;17063;50.892;4.702;2024-02-21T01:14:28;24.47;;;7.83;;
30247;SDS011;17063;50.892;4.702;2024-02-21T01:16:55;20.40;;;7.43;;
30247;SDS011;17063;50.892;4.702;2024-02-21T01:19:22;24.00;;;7.40;;
30247;SDS011;17063;50.892;4.702;2024-02-21T01:21:49;20.70;;;7.83;;
30247;SDS011;17063;50.892;4.702;2024-02-21T01:24:16;22.40;;;7.03;;
30247;SDS011;17063;50.892;4.702;2024-02-21T01:26:43;19.67;;;7.50;;
30247;SDS011;17063;50.892;4.702;2024-02-21T01:29:09;19.47;;;7.80;;
30247;SDS011;17063;50.892;4.702;2024-02-21T01:31:36;21.60;;;7.60;;
30247;SDS011;17063;50.892;4.702;2024-02-21T01:34:03;19.60;;;7.20;;
30247;SDS011;17063;50.892;4.702;2024-02-21T01:36:30;27.47;;;8.33;;
30247;SDS011;17063;50.892;4.702;2024-02-21T01:38:57;24.67;;;7.30;;
30247;SDS011;17063;50.892;4.702;2024-02-21T01:41:25;21.37;;;7.17;;
30247;SDS011;17063;50.892;4.702;2024-02-21T01:43:52;20.90;;;7.43;;
30247;SDS011;17063;50.892;4.702;2024-02-21T01:46:19;20.10;;;7.37;;
30247;SDS011;17063;50.892;4.702;2024-02-21T01:48:46;18.70;;;7.43;;
30247;SDS011;17063;50.892;4.702;2024-02-21T01:51:13;19.57;;;7.57;;
30247;SDS011;17063;50.892;4.702;2024-02-21T01:53:42;22.03;;;7.33;;
30247;SDS011;17063;50.892;4.702;2024-02-21T01:56:09;18.83;;;6.97;;
30247;SDS011;17063;50.892;4.702;2024-02-21T01:58:37;23.83;;;8.30;;
30247;SDS011;17063;50.892;4.702;2024-02-21T02:01:05;18.47;;;7.70;;
30247;SDS011;17063;50.892;4.702;2024-02-21T02:03:32;14.93;;;6.33;;
30247;SDS011;17063;50.892;4.702;2024-02-21T02:06:00;18.17;;;7.17;;
30247;SDS011;17063;50.892;4.702;2024-02-21T02:08:26;15.40;;;6.67;;
30247;SDS011;17063;50.892;4.702;2024-02-21T02:10:53;18.73;;;6.73;;
30247;SDS011;17063;50.892;4.702;2024-02-21T02:13:20;18.37;;;6.63;;
30247;SDS011;17063;50.892;4.702;2024-02-21T02:15:48;13.90;;;6.07;;
30247;SDS011;17063;50.892;4.702;2024-02-21T02:18:16;19.50;;;6.23;;
30247;SDS011;17063;50.892;4.702;2024-02-21T02:20:44;20.80;;;6.93;;
30247;SDS011;17063;50.892;4.702;2024-02-21T02:25:45;21.23;;;6.53;;
30247;SDS011;17063;50.892;4.702;2024-02-21T02:28:15;17.43;;;6.07;;
30247;SDS011;17063;50.892;4.702;2024-02-21T02:30:42;20.10;;;5.93;;
30247;SDS011;17063;50.892;4.702;2024-02-21T02:33:09;18.37;;;6.40;;
30247;SDS011;17063;50.892;4.702;2024-02-21T02:35:36;20.00;;;6.40;;
30247;SDS011;17063;50.892;4.702;2024-02-21T02:38:03;15.03;;;5.87;;
30247;SDS011;17063;50.892;4.702;2024-02-21T02:40:31;16.30;;;5.90;;
30247;SDS011;17063;50.892;4.702;2024-02-21T02:42:59;17.67;;;6.23;;
30247;SDS011;17063;50.892;4.702;2024-02-21T02:45:26;21.13;;;6.53;;
30247;SDS011;17063;50.892;4.702;2024-02-21T02:47:53;14.50;;;6.17;;
30247;SDS011;17063;50.892;4.702;2024-02-21T02:50:24;19.70;;;6.40;;
30247;SDS011;17063;50.892;4.702;2024-02-21T02:52:51;19.47;;;6.50;;
30247;SDS011;17063;50.892;4.702;2024-02-21T02:55:19;24.30;;;6.87;;
30247;SDS011;17063;50.892;4.702;2024-02-21T02:57:46;14.90;;;5.50;;
30247;SDS011;17063;50.892;4.702;2024-02-21T03:00:13;18.70;;;6.37;;
30247;SDS011;17063;50.892;4.702;2024-02-21T03:02:42;25.73;;;7.20;;
30247;SDS011;17063;50.892;4.702;2024-02-21T03:05:11;14.07;;;6.30;;
30247;SDS011;17063;50.892;4.702;2024-02-21T03:07:42;15.30;;;6.03;;
30247;SDS011;17063;50.892;4.702;2024-02-21T03:10:10;12.93;;;6.23;;
30247;SDS011;17063;50.892;4.702;2024-02-21T03:12:38;22.03;;;6.40;;
30247;SDS011;17063;50.892;4.702;2024-02-21T03:15:05;21.30;;;6.90;;
30247;SDS011;17063;50.892;4.702;2024-02-21T03:17:32;16.13;;;6.43;;
30247;SDS011;17063;50.892;4.702;2024-02-21T03:20:03;20.63;;;6.30;;
30247;SDS011;17063;50.892;4.702;2024-02-21T03:22:36;12.50;;;5.97;;
30247;SDS011;17063;50.892;4.702;2024-02-21T03:25:03;17.50;;;6.43;;
30247;SDS011;17063;50.892;4.702;2024-02-21T03:27:31;12.77;;;5.73;;
30247;SDS011;17063;50.892;4.702;2024-02-21T03:29:57;16.23;;;6.10;;
30247;SDS011;17063;50.892;4.702;2024-02-21T03:32:25;19.43;;;6.07;;
30247;SDS011;17063;50.892;4.702;2024-02-21T03:34:52;15.67;;;6.17;;
30247;SDS011;17063;50.892;4.702;2024-02-21T03:37:19;19.70;;;6.43;;
30247;SDS011;17063;50.892;4.702;2024-02-21T03:39:46;18.00;;;6.97;;
30247;SDS011;17063;50.892;4.702;2024-02-21T03:42:13;20.70;;;6.27;;
30247;SDS011;17063;50.892;4.702;2024-02-21T03:44:39;21.83;;;6.80;;
30247;SDS011;17063;50.892;4.702;2024-02-21T03:47:06;14.17;;;5.93;;
30247;SDS011;17063;50.892;4.702;2024-02-21T03:49:37;17.43;;;6.03;;
30247;SDS011;17063;50.892;4.702;2024-02-21T03:52:04;19.83;;;6.43;;
30247;SDS011;17063;50.892;4.702;2024-02-21T03:54:31;19.60;;;6.53;;
30247;SDS011;17063;50.892;4.702;2024-02-21T03:56:57;18.73;;;6.00;;
30247;SDS011;17063;50.892;4.702;2024-02-21T03:59:24;13.47;;;6.23;;
30247;SDS011;17063;50.892;4.702;2024-02-21T04:01:54;16.00;;;6.40;;
30247;SDS011;17063;50.892;4.702;2024-02-21T04:04:22;23.87;;;6.53;;
30247;SDS011;17063;50.892;4.702;2024-02-21T04:06:49;22.43;;;6.07;;
30247;SDS011;17063;50.892;4.702;2024-02-21T04:09:17;18.67;;;6.33;;
30247;SDS011;17063;50.892;4.702;2024-02-21T04:11:44;15.37;;;6.37;;
30247;SDS011;17063;50.892;4.702;2024-02-21T04:14:11;22.03;;;5.87;;
30247;SDS011;17063;50.892;4.702;2024-02-21T04:16:38;19.03;;;6.93;;
30247;SDS011;17063;50.892;4.702;2024-02-21T04:19:06;15.73;;;6.27;;
30247;SDS011;17063;50.892;4.702;2024-02-21T04:21:34;18.07;;;6.47;;
30247;SDS011;17063;50.892;4.702;2024-02-21T04:24:02;16.03;;;6.43;;
30247;SDS011;17063;50.892;4.702;2024-02-21T04:26:32;21.70;;;6.30;;
30247;SDS011;17063;50.892;4.702;2024-02-21T04:29:00;19.70;;;6.60;;
30247;SDS011;17063;50.892;4.702;2024-02-21T04:31:27;16.77;;;6.13;;
30247;SDS011;17063;50.892;4.702;2024-02-21T04:33:55;17.27;;;7.17;;
30247;SDS011;17063;50.892;4.702;2024-02-21T04:36:22;17.60;;;7.00;;
30247;SDS011;17063;50.892;4.702;2024-02-21T04:38:49;15.60;;;6.13;;
30247;SDS011;17063;50.892;4.702;2024-02-21T04:41:16;14.37;;;5.97;;
30247;SDS011;17063;50.892;4.702;2024-02-21T04:43:45;17.30;;;5.80;;
30247;SDS011;17063;50.892;4.702;2024-02-21T04:46:12;16.17;;;6.60;;
30247;SDS011;17063;50.892;4.702;2024-02-21T04:48:39;14.87;;;6.03;;
30247;SDS011;17063;50.892;4.702;2024-02-21T04:51:06;17.93;;;6.60;;
30247;SDS011;17063;50.892;4.702;2024-02-21T04:53:33;15.60;;;6.20;;
30247;SDS011;17063;50.892;4.702;2024-02-21T04:55:59;13.07;;;5.97;;
30247;SDS011;17063;50.892;4.702;2024-02-21T04:58:26;14.97;;;6.03;;
30247;SDS011;17063;50.892;4.702;2024-02-21T05:00:54;18.73;;;5.40;;
30247;SDS011;17063;50.892;4.702;2024-02-21T05:03:21;13.17;;;6.07;;
30247;SDS011;17063;50.892;4.702;2024-02-21T05:05:48;18.13;;;6.13;;
30247;SDS011;17063;50.892;4.702;2024-02-21T05:08:16;18.53;;;6.87;;
30247;SDS011;17063;50.892;4.702;2024-02-21T05:10:42;14.67;;;6.70;;
30247;SDS011;17063;50.892;4.702;2024-02-21T05:13:09;16.70;;;6.03;;
30247;SDS011;17063;50.892;4.702;2024-02-21T05:15:36;13.97;;;6.03;;
30247;SDS011;17063;50.892;4.702;2024-02-21T05:18:03;15.50;;;6.10;;
30247;SDS011;17063;50.892;4.702;2024-02-21T05:20:30;15.67;;;6.63;;
30247;SDS011;17063;50.892;4.702;2024-02-21T05:22:57;17.47;;;6.13;;
30247;SDS011;17063;50.892;4.702;2024-02-21T05:25:24;17.90;;;6.13;;
30247;SDS011;17063;50.892;4.702;2024-02-21T05:27:51;18.57;;;6.47;;
30247;SDS011;17063;50.892;4.702;2024-02-21T05:30:19;17.43;;;6.00;;
30247;SDS011;17063;50.892;4.702;2024-02-21T05:32:46;12.97;;;5.67;;
30247;SDS011;17063;50.892;4.702;2024-02-21T05:35:13;14.73;;;5.77;;
30247;SDS011;17063;50.892;4.702;2024-02-21T05:37:40;18.10;;;5.67;;
30247;SDS011;17063;50.892;4.702;2024-02-21T05:40:07;13.23;;;5.10;;
30247;SDS011;17063;50.892;4.702;2024-02-21T05:42:35;14.57;;;4.87;;
30247;SDS011;17063;50.892;4.702;2024-02-21T05:45:02;11.17;;;5.00;;
30247;SDS011;17063;50.892;4.702;2024-02-21T05:47:29;13.77;;;5.37;;
30247;SDS011;17063;50.892;4.702;2024-02-21T05:49:56;9.20;;;4.87;;
30247;SDS011;17063;50.892;4.702;2024-02-21T05:52:23;13.33;;;5.00;;
30247;SDS011;17063;50.892;4.702;2024-02-21T05:54:50;11.17;;;4.27;;
30247;SDS011;17063;50.892;4.702;2024-02-21T05:57:17;16.47;;;4.83;;
30247;SDS011;17063;50.892;4.702;2024-02-21T05:59:44;12.07;;;4.83;;
30247;SDS011;17063;50.892;4.702;2024-02-21T06:02:11;8.90;;;4.50;;
30247;SDS011;17063;50.892;4.702;2024-02-21T06:04:38;9.40;;;4.83;;
30247;SDS011;17063;50.892;4.702;2024-02-21T06:07:06;10.23;;;4.20;;
30247;SDS011;17063;50.892;4.702;2024-02-21T06:09:33;9.47;;;4.10;;
30247;SDS011;17063;50.892;4.702;2024-02-21T06:12:00;13.40;;;4.27;;
30247;SDS011;17063;50.892;4.702;2024-02-21T06:14:27;11.00;;;4.27;;
30247;SDS011;17063;50.892;4.702;2024-02-21T06:16:54;11.90;;;3.80;;
30247;SDS011;17063;50.892;4.702;2024-02-21T06:19:21;6.60;;;4.27;;
30247;SDS011;17063;50.892;4.702;2024-02-21T06:21:48;8.37;;;4.07;;
30247;SDS011;17063;50.892;4.702;2024-02-21T06:24:15;11.33;;;4.30;;
30247;SDS011;17063;50.892;4.702;2024-02-21T06:26:42;11.80;;;4.40;;
30247;SDS011;17063;50.892;4.702;2024-02-21T06:29:08;10.87;;;4.17;;
30247;SDS011;17063;50.892;4.702;2024-02-21T06:31:35;9.63;;;3.70;;
30247;SDS011;17063;50.892;4.702;2024-02-21T06:34:02;10.57;;;4.10;;
30247;SDS011;17063;50.892;4.702;2024-02-21T06:36:29;7.80;;;3.70;;
30247;SDS011;17063;50.892;4.702;2024-02-21T06:38:56;9.60;;;3.47;;
30247;SDS011;17063;50.892;4.702;2024-02-21T06:41:23;5.73;;;3.40;;
30247;SDS011;17063;50.892;4.702;2024-02-21T06:43:50;7.03;;;3.20;;
30247;SDS011;17063;50.892;4.702;2024-02-21T06:46:26;8.10;;;3.27;;
30247;SDS011;17063;50.892;4.702;2024-02-21T06:48:56;6.50;;;2.77;;
30247;SDS011;17063;50.892;4.702;2024-02-21T06:51:23;7.83;;;3.40;;
30247;SDS011;17063;50.892;4.702;2024-02-21T06:53:51;7.53;;;3.17;;
30247;SDS011;17063;50.892;4.702;2024-02-21T06:56:19;8.17;;;3.53;;
30247;SDS011;17063;50.892;4.702;2024-02-21T06:58:45;8.37;;;3.53;;
30247;SDS011;17063;50.892;4.702;2024-02-21T07:01:13;7.97;;;3.80;;
30247;SDS011;17063;50.892;4.702;2024-02-21T07:03:40;8.47;;;3.80;;
30247;SDS011;17063;50.892;4.702;2024-02-21T07:06:07;8.87;;;4.00;;
30247;SDS011;17063;50.892;4.702;2024-02-21T07:08:34;11.20;;;4.20;;
30247;SDS011;17063;50.892;4.702;2024-02-21T07:11:00;7.60;;;4.27;;
30247;SDS011;17063;50.892;4.702;2024-02-21T07:13:28;5.80;;;3.73;;
30247;SDS011;17063;50.892;4.702;2024-02-21T07:15:55;12.57;;;4.23;;
30247;SDS011;17063;50.892;4.702;2024-02-21T07:18:22;9.53;;;5.13;;
30247;SDS011;17063;50.892;4.702;2024-02-21T07:20:49;10.30;;;4.80;;
30247;SDS011;17063;50.892;4.702;2024-02-21T07:23:15;11.20;;;4.77;;
30247;SDS011;17063;50.892;4.702;2024-02-21T07:25:42;13.83;;;4.83;;
30247;SDS011;17063;50.892;4.702;2024-02-21T07:28:09;11.00;;;5.40;;
30247;SDS011;17063;50.892;4.702;2024-02-21T07:30:36;10.57;;;5.07;;
30247;SDS011;17063;50.892;4.702;2024-02-21T07:33:05;10.90;;;5.30;;
30247;SDS011;17063;50.892;4.702;2024-02-21T07:35:33;9.37;;;5.13;;
30247;SDS011;17063;50.892;4.702;2024-02-21T07:38:01;10.13;;;4.83;;
30247;SDS011;17063;50.892;4.702;2024-02-21T07:40:30;9.23;;;5.30;;
30247;SDS011;17063;50.892;4.702;2024-02-21T07:42:57;14.70;;;5.90;;
30247;SDS011;17063;50.892;4.702;2024-02-21T07:45:23;15.33;;;5.73;;
30247;SDS011;17063;50.892;4.702;2024-02-21T07:47:51;13.60;;;5.23;;
30247;SDS011;17063;50.892;4.702;2024-02-21T07:50:17;11.00;;;5.57;;
30247;SDS011;17063;50.892;4.702;2024-02-21T07:52:44;9.23;;;6.03;;
30247;SDS011;17063;50.892;4.702;2024-02-21T07:55:11;14.17;;;5.57;;
30247;SDS011;17063;50.892;4.702;2024-02-21T07:57:38;46.37;;;10.03;;
30247;SDS011;17063;50.892;4.702;2024-02-21T08:00:05;15.80;;;5.77;;
30247;SDS011;17063;50.892;4.702;2024-02-21T08:02:40;10.20;;;5.37;;
30247;SDS011;17063;50.892;4.702;2024-02-21T08:05:09;13.47;;;5.73;;
30247;SDS011;17063;50.892;4.702;2024-02-21T08:07:36;12.07;;;5.47;;
30247;SDS011;17063;50.892;4.702;2024-02-21T08:10:03;11.90;;;4.93;;
30247;SDS011;17063;50.892;4.702;2024-02-21T08:12:30;9.63;;;5.70;;
30247;SDS011;17063;50.892;4.702;2024-02-21T08:14:57;15.93;;;6.10;;
30247;SDS011;17063;50.892;4.702;2024-02-21T08:17:24;11.40;;;4.83;;
30247;SDS011;17063;50.892;4.702;2024-02-21T08:19:51;10.97;;;5.60;;
30247;SDS011;17063;50.892;4.702;2024-02-21T08:22:18;13.00;;;5.47;;
30247;SDS011;17063;50.892;4.702;2024-02-21T08:24:45;12.47;;;5.87;;
30247;SDS011;17063;50.892;4.702;2024-02-21T08:27:12;11.03;;;6.10;;
30247;SDS011;17063;50.892;4.702;2024-02-21T08:29:39;14.43;;;5.70;;
30247;SDS011;17063;50.892;4.702;2024-02-21T08:32:06;13.37;;;5.10;;
30247;SDS011;17063;50.892;4.702;2024-02-21T08:34:33;8.27;;;4.83;;
30247;SDS011;17063;50.892;4.702;2024-02-21T08:37:02;17.00;;;5.10;;
30247;SDS011;17063;50.892;4.702;2024-02-21T08:39:29;10.00;;;4.47;;
30247;SDS011;17063;50.892;4.702;2024-02-21T08:41:57;12.77;;;4.90;;
30247;SDS011;17063;50.892;4.702;2024-02-21T08:44:24;8.70;;;4.37;;
30247;SDS011;17063;50.892;4.702;2024-02-21T08:46:55;10.17;;;4.77;;
30247;SDS011;17063;50.892;4.702;2024-02-21T08:49:23;10.93;;;3.70;;
30247;SDS011;17063;50.892;4.702;2024-02-21T08:51:59;13.50;;;4.17;;
30247;SDS011;17063;50.892;4.702;2024-02-21T08:54:27;13.90;;;4.03;;
30247;SDS011;17063;50.892;4.702;2024-02-21T08:56:54;9.53;;;4.03;;
30247;SDS011;17063;50.892;4.702;2024-02-21T08:59:21;13.47;;;3.93;;
30247;SDS011;17063;50.892;4.702;2024-02-21T09:01:48;10.43;;;4.13;;
30247;SDS011;17063;50.892;4.702;2024-02-21T09:04:15;8.53;;;3.30;;
30247;SDS011;17063;50.892;4.702;2024-02-21T09:06:43;9.17;;;3.73;;
30247;SDS011;17063;50.892;4.702;2024-02-21T09:09:12;10.43;;;3.70;;
30247;SDS011;17063;50.892;4.702;2024-02-21T09:11:39;11.57;;;3.40;;
30247;SDS011;17063;50.892;4.702;2024-02-21T09:14:09;7.30;;;3.47;;
30247;SDS011;17063;50.892;4.702;2024-02-21T09:16:37;8.50;;;3.20;;
30247;SDS011;17063;50.892;4.702;2024-02-21T09:19:05;10.17;;;3.83;;
30247;SDS011;17063;50.892;4.702;2024-02-21T09:21:33;8.77;;;3.63;;
30247;SDS011;17063;50.892;4.702;2024-02-21T09:24:01;9.17;;;2.83;;
30247;SDS011;17063;50.892;4.702;2024-02-21T09:26:29;8.73;;;3.50;;
30247;SDS011;17063;50.892;4.702;2024-02-21T09:28:56;10.20;;;3.67;;
30247;SDS011;17063;50.892;4.702;2024-02-21T09:31:23;9.83;;;2.93;;
30247;SDS011;17063;50.892;4.702;2024-02-21T09:34:07;6.67;;;3.20;;
30247;SDS011;17063;50.892;4.702;2024-02-21T09:36:35;9.87;;;3.27;;
30247;SDS011;17063;50.892;4.702;2024-02-21T09:39:06;8.13;;;2.70;;
30247;SDS011;17063;50.892;4.702;2024-02-21T09:41:35;7.00;;;3.10;;
30247;SDS011;17063;50.892;4.702;2024-02-21T09:44:04;9.00;;;3.43;;
30247;SDS011;17063;50.892;4.702;2024-02-21T09:49:10;9.90;;;3.53;;
30247;SDS011;17063;50.892;4.702;2024-02-21T09:51:47;7.57;;;2.60;;
30247;SDS011;17063;50.892;4.702;2024-02-21T09:54:16;6.23;;;2.80;;
30247;SDS011;17063;50.892;4.702;2024-02-21T09:56:48;7.70;;;2.87;;
30247;SDS011;17063;50.892;4.702;2024-02-21T09:59:15;6.87;;;2.70;;
30247;SDS011;17063;50.892;4.702;2024-02-21T10:01:43;10.70;;;2.80;;
30247;SDS011;17063;50.892;4.702;2024-02-21T10:04:14;8.80;;;3.10;;
30247;SDS011;17063;50.892;4.702;2024-02-21T10:06:42;10.67;;;3.13;;
30247;SDS011;17063;50.892;4.702;2024-02-21T10:09:20;3.87;;;2.47;;
30247;SDS011;17063;50.892;4.702;2024-02-21T10:11:54;6.10;;;3.10;;
30247;SDS011;17063;50.892;4.702;2024-02-21T10:14:39;6.13;;;3.00;;
30247;SDS011;17063;50.892;4.702;2024-02-21T10:17:07;5.60;;;2.70;;
30247;SDS011;17063;50.892;4.702;2024-02-21T10:19:38;5.53;;;2.30;;
30247;SDS011;17063;50.892;4.702;2024-02-21T10:22:09;6.47;;;2.80;;
30247;SDS011;17063;50.892;4.702;2024-02-21T10:24:37;12.13;;;2.90;;
30247;SDS011;17063;50.892;4.702;2024-02-21T10:27:09;9.90;;;2.90;;
30247;SDS011;17063;50.892;4.702;2024-02-21T10:29:39;8.57;;;2.63;;
30247;SDS011;17063;50.892;4.702;2024-02-21T10:32:07;7.53;;;2.70;;
30247;SDS011;17063;50.892;4.702;2024-02-21T10:34:36;7.17;;;2.70;;
30247;SDS011;17063;50.892;4.702;2024-02-21T10:37:05;11.60;;;3.30;;
30247;SDS011;17063;50.892;4.702;2024-02-21T10:39:33;6.77;;;2.60;;
30247;SDS011;17063;50.892;4.702;2024-02-21T10:42:07;9.23;;;2.87;;
30247;SDS011;17063;50.892;4.702;2024-02-21T10:44:41;8.67;;;2.80;;
30247;SDS011;17063;50.892;4.702;2024-02-21T10:47:10;6.73;;;2.70;;
30247;SDS011;17063;50.892;4.702;2024-02-21T10:49:40;8.67;;;2.93;;
30247;SDS011;17063;50.892;4.702;2024-02-21T10:54:43;9.93;;;2.80;;
30247;SDS011;17063;50.892;4.702;2024-02-21T10:57:21;9.23;;;3.40;;
30247;SDS011;17063;50.892;4.702;2024-02-21T10:59:49;6.37;;;2.80;;
30247;SDS011;17063;50.892;4.702;2024-02-21T11:02:17;12.13;;;3.00;;
30247;SDS011;17063;50.892;4.702;2024-02-21T11:04:45;11.10;;;3.30;;
30247;SDS011;17063;50.892;4.702;2024-02-21T11:07:13;13.10;;;3.33;;
30247;SDS011;17063;50.892;4.702;2024-02-21T11:09:50;7.70;;;2.73;;
30247;SDS011;17063;50.892;4.702;2024-02-21T11:12:20;12.30;;;3.17;;
30247;SDS011;17063;50.892;4.702;2024-02-21T11:14:48;9.03;;;3.50;;
30247;SDS011;17063;50.892;4.702;2024-02-21T11:17:18;6.50;;;2.40;;
30247;SDS011;17063;50.892;4.702;2024-02-21T11:19:47;10.53;;;2.60;;
30247;SDS011;17063;50.892;4.702;2024-02-21T11:22:18;7.67;;;2.90;;
30247;SDS011;17063;50.892;4.702;2024-02-21T11:24:46;9.43;;;3.00;;
30247;SDS011;17063;50.892;4.702;2024-02-21T11:27:14;8.83;;;2.50;;
30247;SDS011;17063;50.892;4.702;2024-02-21T11:29:48;7.53;;;2.20;;
30247;SDS011;17063;50.892;4.702;2024-02-21T11:32:19;11.97;;;3.00;;
30247;SDS011;17063;50.892;4.702;2024-02-21T11:37:29;8.70;;;2.23;;
30247;SDS011;17063;50.892;4.702;2024-02-21T11:40:00;5.67;;;2.40;;
30247;SDS011;17063;50.892;4.702;2024-02-21T11:42:29;6.00;;;2.20;;
30247;SDS011;17063;50.892;4.702;2024-02-21T11:44:57;7.17;;;1.90;;
30247;SDS011;17063;50.892;4.702;2024-02-21T11:47:24;6.27;;;2.30;;
30247;SDS011;17063;50.892;4.702;2024-02-21T11:49:51;5.37;;;2.27;;
30247;SDS011;17063;50.892;4.702;2024-02-21T11:52:21;7.07;;;2.20;;
30247;SDS011;17063;50.892;4.702;2024-02-21T11:54:52;4.43;;;2.40;;
30247;SDS011;17063;50.892;4.702;2024-02-21T11:57:20;6.13;;;2.13;;
30247;SDS011;17063;50.892;4.702;2024-02-21T11:59:47;7.03;;;2.17;;
30247;SDS011;17063;50.892;4.702;2024-02-21T12:02:14;5.23;;;2.00;;
30247;SDS011;17063;50.892;4.702;2024-02-21T12:04:42;8.37;;;2.00;;
30247;SDS011;17063;50.892;4.702;2024-02-21T12:07:10;11.43;;;2.20;;
30247;SDS011;17063;50.892;4.702;2024-02-21T12:09:37;4.93;;;2.07;;
30247;SDS011;17063;50.892;4.702;2024-02-21T12:12:05;6.60;;;2.03;;
30247;SDS011;17063;50.892;4.702;2024-02-21T12:14:35;6.83;;;2.30;;
30247;SDS011;17063;50.892;4.702;2024-02-21T12:17:02;4.87;;;2.27;;
30247;SDS011;17063;50.892;4.702;2024-02-21T12:19:33;3.07;;;1.80;;
30247;SDS011;17063;50.892;4.702;2024-02-21T12:22:01;9.20;;;2.20;;
30247;SDS011;17063;50.892;4.702;2024-02-21T12:24:33;6.03;;;2.00;;
30247;SDS011;17063;50.892;4.702;2024-02-21T12:27:00;4.13;;;2.10;;
30247;SDS011;17063;50.892;4.702;2024-02-21T12:29:30;6.13;;;2.00;;
30247;SDS011;17063;50.892;4.702;2024-02-21T12:31:57;4.73;;;2.07;;
30247;SDS011;17063;50.892;4.702;2024-02-21T12:34:24;5.60;;;1.93;;
30247;SDS011;17063;50.892;4.702;2024-02-21T12:37:10;5.53;;;2.03;;
30247;SDS011;17063;50.892;4.702;2024-02-21T12:39:40;4.00;;;2.20;;
30247;SDS011;17063;50.892;4.702;2024-02-21T12:42:06;7.60;;;2.20;;
30247;SDS011;17063;50.892;4.702;2024-02-21T12:44:33;6.10;;;2.00;;
30247;SDS011;17063;50.892;4.702;2024-02-21T12:47:00;6.53;;;2.00;;
30247;SDS011;17063;50.892;4.702;2024-02-21T12:49:27;8.73;;;2.23;;
30247;SDS011;17063;50.892;4.702;2024-02-21T12:51:56;7.00;;;2.47;;
30247;SDS011;17063;50.892;4.702;2024-02-21T12:54:23;4.90;;;1.87;;
30247;SDS011;17063;50.892;4.702;2024-02-21T12:56:50;8.83;;;2.60;;
30247;SDS011;17063;50.892;4.702;2024-02-21T12:59:17;9.83;;;2.27;;
30247;SDS011;17063;50.892;4.702;2024-02-21T13:01:43;9.33;;;2.60;;
30247;SDS011;17063;50.892;4.702;2024-02-21T13:04:11;8.70;;;2.23;;
30247;SDS011;17063;50.892;4.702;2024-02-21T13:06:38;8.37;;;2.93;;
30247;SDS011;17063;50.892;4.702;2024-02-21T13:09:05;13.03;;;2.80;;
30247;SDS011;17063;50.892;4.702;2024-02-21T13:11:34;6.23;;;2.60;;
30247;SDS011;17063;50.892;4.702;2024-02-21T13:14:01;5.17;;;2.27;;
30247;SDS011;17063;50.892;4.702;2024-02-21T13:16:29;5.67;;;2.13;;
30247;SDS011;17063;50.892;4.702;2024-02-21T13:18:56;4.63;;;2.30;;
30247;SDS011;17063;50.892;4.702;2024-02-21T13:21:22;6.63;;;2.47;;
30247;SDS011;17063;50.892;4.702;2024-02-21T13:23:50;9.87;;;2.60;;
30247;SDS011;17063;50.892;4.702;2024-02-21T13:26:16;4.00;;;2.20;;
30247;SDS011;17063;50.892;4.702;2024-02-21T13:28:44;9.87;;;2.30;;
30247;SDS011;17063;50.892;4.702;2024-02-21T13:31:11;6.60;;;2.50;;
30247;SDS011;17063;50.892;4.702;2024-02-21T13:33:38;8.40;;;2.63;;
30247;SDS011;17063;50.892;4.702;2024-02-21T13:36:05;6.67;;;2.83;;
30247;SDS011;17063;50.892;4.702;2024-02-21T13:38:33;10.03;;;2.23;;
30247;SDS011;17063;50.892;4.702;2024-02-21T13:40:59;9.00;;;2.70;;
30247;SDS011;17063;50.892;4.702;2024-02-21T13:43:27;6.77;;;2.40;;
30247;SDS011;17063;50.892;4.702;2024-02-21T13:45:55;7.03;;;2.40;;
30247;SDS011;17063;50.892;4.702;2024-02-21T13:48:24;5.93;;;2.53;;
30247;SDS011;17063;50.892;4.702;2024-02-21T13:50:51;7.07;;;2.63;;
30247;SDS011;17063;50.892;4.702;2024-02-21T13:53:18;8.13;;;2.50;;
30247;SDS011;17063;50.892;4.702;2024-02-21T13:55:45;6.90;;;2.77;;
30247;SDS011;17063;50.892;4.702;2024-02-21T13:58:12;5.90;;;2.73;;
30247;SDS011;17063;50.892;4.702;2024-02-21T14:00:39;5.97;;;2.37;;
30247;SDS011;17063;50.892;4.702;2024-02-21T14:03:05;9.83;;;3.20;;
30247;SDS011;17063;50.892;4.702;2024-02-21T14:05:32;8.70;;;2.43;;
30247;SDS011;17063;50.892;4.702;2024-02-21T14:07:59;8.97;;;2.53;;
30247;SDS011;17063;50.892;4.702;2024-02-21T14:10:26;7.60;;;2.83;;
30247;SDS011;17063;50.892;4.702;2024-02-21T14:12:53;7.70;;;2.80;;
30247;SDS011;17063;50.892;4.702;2024-02-21T14:15:20;7.63;;;2.80;;
30247;SDS011;17063;50.892;4.702;2024-02-21T14:17:46;8.03;;;2.50;;
30247;SDS011;17063;50.892;4.702;2024-02-21T14:20:13;6.67;;;2.67;;
30247;SDS011;17063;50.892;4.702;2024-02-21T14:22:44;8.40;;;2.90;;
30247;SDS011;17063;50.892;4.702;2024-02-21T14:25:10;5.73;;;2.60;;
30247;SDS011;17063;50.892;4.702;2024-02-21T14:27:38;7.00;;;2.63;;
30247;SDS011;17063;50.892;4.702;2024-02-21T14:30:05;12.47;;;3.37;;
30247;SDS011;17063;50.892;4.702;2024-02-21T14:32:37;7.23;;;3.43;;
30247;SDS011;17063;50.892;4.702;2024-02-21T14:35:04;4.07;;;2.77;;
30247;SDS011;17063;50.892;4.702;2024-02-21T14:37:33;8.73;;;3.27;;
30247;SDS011;17063;50.892;4.702;2024-02-21T14:40:00;7.40;;;2.43;;
30247;SDS011;17063;50.892;4.702;2024-02-21T14:42:30;9.30;;;3.23;;
30247;SDS011;17063;50.892;4.702;2024-02-21T14:44:57;11.90;;;3.23;;
30247;SDS011;17063;50.892;4.702;2024-02-21T14:47:31;8.97;;;3.10;;
30247;SDS011;17063;50.892;4.702;2024-02-21T14:49:58;8.87;;;3.23;;
30247;SDS011;17063;50.892;4.702;2024-02-21T14:52:26;12.30;;;3.17;;
30247;SDS011;17063;50.892;4.702;2024-02-21T14:54:54;11.73;;;3.07;;